Pagrindinis puslapis
METAR-TAF:

METAR-TAF

Oro uostai :

Berlynas, Vokietija

platuma: 52-34N, ilguma: 013-19E, Aukštis: 37 m

Dabartinis oras

Ataskaita buvo paskelbta 11 minutes, ne 22:50 UTC
Vėjas 4 kt iš Šiaurės, svyruoja nuo Šiaurės/Šiaurės Vakarų ir Šiaurės Rytų
Temperatūra 11°C
Drėgmė 71%
Slėgis 1023 hPa
Matomumas 10 km arba daugiau
nėra debesų žemiau 1500 m ir nėra kamuolinių lietaus debesų

METAR: EDDT 302250Z 01004KT 330V040 CAVOK 11/06 Q1023

Laikas: 01:01 (23:01 UTC)

Prognozė

Ataskaita buvo paskelbta 6 valandos ir 1 minutes, ne 17:00 UTC
Prognozė galioja nuo 30 metu 18 UTC su 31 metu 18 UTC
Vėjas 6 kt iš Šiaurės
Matomumas 10 km arba daugiau
nėra debesų žemiau 1500 m ir nėra kamuolinių lietaus debesų
Tapsmas
nuo 31 metu 09 UTC su 31 metu 11 UTC
Vėjas 11 kt iš Šiaurės

TAF: EDDT 301700Z 3018/3118 36006KT CAVOK BECMG 3109/3111 01011KT

Orai ataskaitas ir orų prognozės (METAR, TAF).

turimą stotys yra geltonos ir raudonos taškus žemėlapyje.

Perkelti pele per norėdami pamatyti stoties vardą.

Tada spustelėkite, norėdami matyti oro stebėjimo ir prognozės.

Norėdami pakeisti žemėlapį: spustelėkite ant žalios mygtukų su juodo kryžiaus žemyn,; žalią mygtuką su brūkšneliu, jei norite nutolinti; arba žalių rodyklių gretimoms žemėlapius.


METAR-TAF: